メインページ
METAR-TAF:

METAR-TAF

空港 :

デイトン, オハイオ州, アメリカ合衆国

緯度: 39-35-20N, 経度: 084-13-29W, 海抜: 292m

現時点の気象観測

当レポートは49分前の23:53(UTC)に作成
北東の風 5kt
気温 22°C
湿度 53%
気圧 1020 hPa
視程: 16.1km
高度5000ftの千切れ雲あり
高度6000ftの曇り

METAR: KMGY 232353Z AUTO 05005KT 10SM BKN050 OVC060 22/12 A3013 RMK AO2 SLP197 T02220117 10250 20222 53003

時間: 20:42 (00:42 UTC)


TAF: 見つかりません

4,000以上の空港の気象観測と天気予報(METAR報とTAF報)

利用可能な観測所は地図上に黄色い丸と赤い丸で示す。

丸の上にカーソルを重ねると観測所名を参照できる。

次にクリックすると気象観測と天気予報を参照できる。

マップの切り替え:黒色「×」印の緑ボタンをクリックして拡大、「-」印の緑ボタンをクリックして縮小、緑色の三角印をクリックして隣りの地図に切り替え


METAR-TAF: